Picton, Canada
Current Conditions -  °F | °C
As of 11:00 PM on Saturday 22 Nov 2014 (Local Time) from CYTR Reporting Station
Rain Showers Rain Showers  
Wind Chill: 36°   Ceiling: 900
Heat Index: 43°   Visibility: 5mi
Dew Point: 43°   Wind: 13mph
Humidity: 100%   Direction: 240°WSW
Pressure: 29.92"   Gusts: 18mph
Location:  44.01°N, 77.14°W
Report Text: CYTR 230400Z 24011G16KT 5SM -SHRA BR OVC009 06/06 A2992 RMK SF8 SLP136
Loading
Personal Weather Stations






























Interactive Weather Map New forecast layout! Learn more

10-Day Weather Forecast

Advertisements
Track Severe Weather on mobile